createdAt,value
2017-07-29T00:02:13.090Z,19.10
2017-07-29T00:04:39.359Z,19.00
2017-07-29T00:07:05.660Z,19.10
2017-07-29T00:09:31.959Z,18.90
2017-07-29T00:11:58.551Z,18.80
2017-07-29T00:14:24.811Z,18.60
2017-07-29T00:16:51.078Z,18.70
2017-07-29T00:19:17.381Z,18.60
2017-07-29T00:21:43.641Z,18.50
2017-07-29T00:24:09.937Z,18.40
2017-07-29T00:26:36.223Z,18.30
2017-07-29T00:29:02.506Z,18.30
2017-07-29T00:31:28.829Z,18.30
2017-07-29T00:33:55.132Z,18.40
2017-07-29T00:36:21.408Z,18.10
2017-07-29T00:38:48.032Z,18.30
2017-07-29T00:41:14.303Z,18.30
2017-07-29T00:43:40.586Z,18.30
2017-07-29T00:46:06.845Z,18.20
2017-07-29T00:48:33.106Z,18.20
2017-07-29T00:50:59.399Z,18.20
2017-07-29T00:53:25.656Z,18.20
2017-07-29T00:55:51.921Z,18.20
2017-07-29T00:58:18.202Z,18.20
2017-07-29T01:00:44.476Z,18.20
2017-07-29T01:03:10.761Z,18.10
2017-07-29T01:05:37.033Z,18.10
2017-07-29T01:08:03.313Z,18.10
2017-07-29T01:10:29.606Z,18.00
2017-07-29T01:12:55.893Z,18.00
2017-07-29T01:15:22.181Z,17.90
2017-07-29T01:17:48.448Z,17.90
2017-07-29T01:20:14.709Z,17.70
2017-07-29T01:22:40.980Z,17.70
2017-07-29T01:25:07.661Z,17.70
2017-07-29T01:27:33.934Z,17.80
2017-07-29T01:30:00.202Z,17.90
2017-07-29T01:32:26.484Z,17.80
2017-07-29T01:34:53.143Z,17.90
2017-07-29T01:37:19.484Z,17.90
2017-07-29T01:39:45.790Z,17.70
2017-07-29T01:42:12.477Z,17.70
2017-07-29T01:44:38.745Z,17.60
2017-07-29T01:47:05.104Z,17.60
2017-07-29T01:49:31.386Z,17.50
2017-07-29T01:51:57.703Z,17.30
2017-07-29T01:54:23.996Z,17.30
2017-07-29T01:56:50.306Z,17.40
2017-07-29T01:59:16.593Z,17.40
2017-07-29T02:01:42.950Z,17.30
2017-07-29T02:04:09.536Z,17.20
2017-07-29T02:06:35.817Z,17.20
2017-07-29T02:09:02.180Z,17.20
2017-07-29T02:11:28.456Z,17.20
2017-07-29T02:13:54.713Z,17.20
2017-07-29T02:16:21.010Z,17.30
2017-07-29T02:18:47.281Z,17.10
2017-07-29T02:21:13.946Z,17.10
2017-07-29T02:23:40.217Z,17.00
2017-07-29T02:26:06.826Z,17.10
2017-07-29T02:28:33.092Z,17.20
2017-07-29T02:30:59.366Z,17.10
2017-07-29T02:33:25.660Z,17.10
2017-07-29T02:35:52.294Z,17.00
2017-07-29T02:38:19.573Z,17.00
2017-07-29T02:40:45.829Z,17.00
2017-07-29T02:43:12.101Z,17.10
2017-07-29T02:45:38.380Z,16.90
2017-07-29T02:48:04.678Z,17.00
2017-07-29T02:50:31.325Z,16.90
2017-07-29T02:52:57.621Z,16.90
2017-07-29T02:55:23.887Z,17.00
2017-07-29T02:57:50.163Z,16.90
2017-07-29T03:00:16.473Z,16.90
2017-07-29T03:02:42.732Z,16.80
2017-07-29T03:05:09.006Z,16.80
2017-07-29T03:07:35.254Z,16.80
2017-07-29T03:10:01.549Z,16.80
2017-07-29T03:12:28.209Z,16.80
2017-07-29T03:14:54.881Z,16.80
2017-07-29T03:17:21.156Z,16.80
2017-07-29T03:19:47.411Z,16.70
2017-07-29T03:22:13.707Z,16.80
2017-07-29T03:24:40.360Z,16.90
2017-07-29T03:27:06.675Z,16.90
2017-07-29T03:29:32.968Z,16.90
2017-07-29T03:31:59.267Z,16.90
2017-07-29T03:34:25.540Z,16.70
2017-07-29T03:36:51.844Z,16.60
2017-07-29T03:39:18.116Z,16.50
2017-07-29T03:41:44.765Z,16.50
2017-07-29T03:44:11.425Z,16.60
2017-07-29T03:46:37.746Z,16.60
2017-07-29T03:49:04.025Z,16.60
2017-07-29T03:51:30.288Z,16.50
2017-07-29T03:53:57.387Z,16.20
2017-07-29T03:56:23.648Z,16.20
2017-07-29T03:58:49.916Z,16.20
2017-07-29T04:01:16.205Z,16.20
2017-07-29T04:03:42.495Z,16.20
2017-07-29T04:06:08.772Z,16.10
2017-07-29T04:08:35.079Z,16.10
2017-07-29T04:11:01.348Z,16.10
2017-07-29T04:13:27.977Z,16.40
2017-07-29T04:15:54.644Z,16.40
2017-07-29T04:18:20.923Z,16.40
2017-07-29T04:20:47.528Z,16.40
2017-07-29T04:23:13.805Z,16.40
2017-07-29T04:25:40.101Z,16.50
2017-07-29T04:28:06.395Z,16.50
2017-07-29T04:30:32.693Z,16.50
2017-07-29T04:32:58.987Z,16.50
2017-07-29T04:35:25.255Z,16.60
2017-07-29T04:37:51.931Z,16.50
2017-07-29T04:40:18.188Z,16.50
2017-07-29T04:42:44.750Z,16.60
2017-07-29T04:45:11.024Z,16.50
2017-07-29T04:47:37.275Z,16.60
2017-07-29T04:50:03.594Z,16.60
2017-07-29T04:52:29.864Z,16.70
2017-07-29T04:54:56.140Z,16.80
2017-07-29T04:57:22.402Z,16.70
2017-07-29T04:59:48.701Z,16.60
2017-07-29T05:02:14.971Z,16.60
2017-07-29T05:04:41.252Z,16.60
2017-07-29T05:07:07.547Z,16.70
2017-07-29T05:09:33.819Z,16.80
2017-07-29T05:12:00.098Z,16.80
2017-07-29T05:14:26.377Z,16.90
2017-07-29T05:16:52.664Z,16.90
2017-07-29T05:19:18.909Z,16.80
2017-07-29T05:21:45.223Z,16.80
2017-07-29T05:24:11.896Z,16.90
2017-07-29T05:26:38.159Z,16.90
2017-07-29T05:29:04.443Z,17.10
2017-07-29T05:31:30.701Z,17.10
2017-07-29T05:33:56.993Z,16.90
2017-07-29T05:36:23.282Z,16.90
2017-07-29T05:38:49.888Z,17.00
2017-07-29T05:41:16.136Z,17.10
2017-07-29T05:43:42.420Z,17.10
2017-07-29T05:46:08.717Z,17.20
2017-07-29T05:48:35.021Z,17.30
2017-07-29T05:51:01.351Z,17.30
2017-07-29T05:53:27.644Z,17.40
2017-07-29T05:55:53.906Z,17.60
2017-07-29T05:58:20.202Z,17.60
2017-07-29T06:00:46.515Z,17.60
2017-07-29T06:03:13.183Z,17.80
2017-07-29T06:05:39.489Z,17.80
2017-07-29T06:08:05.766Z,17.90
2017-07-29T06:10:32.035Z,17.80
2017-07-29T06:12:58.702Z,17.60
2017-07-29T06:15:24.999Z,17.60
2017-07-29T06:17:51.284Z,17.80
2017-07-29T06:20:17.534Z,18.10
2017-07-29T06:22:43.841Z,18.10
2017-07-29T06:25:10.152Z,18.30
2017-07-29T06:27:36.717Z,18.30
2017-07-29T06:30:03.002Z,18.30
2017-07-29T06:32:29.312Z,18.50
2017-07-29T06:34:55.597Z,18.70
2017-07-29T06:37:21.884Z,18.90
2017-07-29T06:39:48.180Z,19.00
2017-07-29T06:42:14.462Z,19.00
2017-07-29T06:44:40.765Z,18.90
2017-07-29T06:47:07.036Z,19.00
2017-07-29T06:49:33.318Z,19.10
2017-07-29T06:51:59.967Z,19.20
2017-07-29T06:54:26.662Z,19.40
2017-07-29T06:56:52.952Z,19.40
2017-07-29T06:59:19.257Z,19.50
2017-07-29T07:01:45.893Z,19.60
2017-07-29T07:04:12.137Z,19.60
2017-07-29T07:06:38.426Z,19.70
2017-07-29T07:09:04.700Z,19.70
2017-07-29T07:11:30.995Z,19.70
2017-07-29T07:13:57.278Z,20.00
2017-07-29T07:16:23.825Z,20.00
2017-07-29T07:18:50.090Z,20.20
2017-07-29T07:21:16.351Z,20.00
2017-07-29T07:23:42.626Z,20.10
2017-07-29T07:26:08.905Z,20.00
2017-07-29T07:28:35.175Z,19.90
2017-07-29T07:31:01.431Z,19.90
2017-07-29T07:33:27.721Z,20.00
2017-07-29T07:35:53.989Z,20.10
2017-07-29T07:38:20.301Z,20.30
2017-07-29T07:40:46.605Z,20.40
2017-07-29T07:43:12.870Z,20.50
2017-07-29T07:45:39.782Z,20.50
2017-07-29T07:48:06.058Z,20.70
2017-07-29T07:50:32.394Z,20.80
2017-07-29T07:52:58.690Z,20.90
2017-07-29T07:55:25.005Z,20.90
2017-07-29T07:57:51.268Z,21.00
2017-07-29T08:00:17.569Z,21.30
2017-07-29T08:02:43.860Z,21.30
2017-07-29T08:05:10.174Z,21.50
2017-07-29T08:07:36.460Z,21.40
2017-07-29T08:10:02.741Z,21.60
2017-07-29T08:12:29.853Z,21.90
2017-07-29T08:14:56.180Z,21.90
2017-07-29T08:17:22.473Z,21.80
2017-07-29T08:19:48.770Z,21.90
2017-07-29T08:22:15.055Z,22.20
2017-07-29T08:24:41.340Z,22.50
2017-07-29T08:27:08.012Z,22.50
2017-07-29T08:29:34.308Z,22.50
2017-07-29T08:32:00.568Z,22.50
2017-07-29T08:34:27.120Z,22.80
2017-07-29T08:36:53.393Z,22.90
2017-07-29T08:39:19.677Z,23.10
2017-07-29T08:41:45.979Z,22.90
2017-07-29T08:44:12.284Z,22.90
2017-07-29T08:46:38.570Z,22.80
2017-07-29T08:49:04.867Z,22.60
2017-07-29T08:51:31.141Z,22.80
2017-07-29T08:53:57.406Z,23.00
2017-07-29T08:56:23.704Z,23.10
2017-07-29T08:58:49.964Z,23.20
2017-07-29T09:01:16.641Z,23.10
2017-07-29T09:03:42.917Z,23.20
2017-07-29T09:06:09.185Z,23.20
2017-07-29T09:08:35.538Z,23.10
2017-07-29T09:11:01.826Z,23.10
2017-07-29T09:13:28.418Z,23.10
2017-07-29T09:15:54.674Z,23.10
2017-07-29T09:18:20.966Z,23.30
2017-07-29T09:20:47.265Z,23.60
2017-07-29T09:23:13.524Z,23.90
2017-07-29T09:25:39.836Z,24.10
2017-07-29T09:28:06.111Z,24.40
2017-07-29T09:30:32.380Z,24.60
2017-07-29T09:32:58.659Z,24.70
2017-07-29T09:35:24.928Z,24.70
2017-07-29T09:37:51.240Z,24.60
2017-07-29T09:40:17.504Z,24.40
2017-07-29T09:42:43.802Z,24.40
2017-07-29T09:45:10.098Z,24.50
2017-07-29T09:47:36.424Z,24.80
2017-07-29T09:50:02.724Z,24.80
2017-07-29T09:52:28.983Z,24.80
2017-07-29T09:54:55.297Z,25.00
2017-07-29T09:57:21.572Z,25.30
2017-07-29T09:59:47.850Z,25.60
2017-07-29T10:02:14.140Z,25.90
2017-07-29T10:04:40.785Z,26.00
2017-07-29T10:07:07.429Z,26.00
2017-07-29T10:09:33.712Z,26.00
2017-07-29T10:11:59.980Z,25.90
2017-07-29T10:14:26.271Z,25.90
2017-07-29T10:16:52.564Z,25.70
2017-07-29T10:19:18.804Z,25.60
2017-07-29T10:21:45.469Z,25.80
2017-07-29T10:24:11.748Z,26.10
2017-07-29T10:26:38.006Z,26.60
2017-07-29T10:29:04.277Z,26.90
2017-07-29T10:31:30.536Z,27.20
2017-07-29T10:33:56.845Z,27.40
2017-07-29T10:36:23.877Z,27.30
2017-07-29T10:38:50.903Z,27.20
2017-07-29T10:41:17.150Z,27.30
2017-07-29T10:43:43.438Z,27.30
2017-07-29T10:46:09.774Z,27.30
2017-07-29T10:48:36.030Z,27.60
2017-07-29T10:51:02.351Z,27.40
2017-07-29T10:53:28.642Z,27.00
2017-07-29T10:55:54.933Z,27.50
2017-07-29T10:58:21.239Z,27.80
2017-07-29T11:00:48.575Z,28.00
2017-07-29T11:03:14.900Z,27.80
2017-07-29T11:05:41.170Z,27.50
2017-07-29T11:08:07.481Z,27.70
2017-07-29T11:10:33.763Z,27.50
2017-07-29T11:13:00.069Z,27.40
2017-07-29T11:15:26.361Z,27.50
2017-07-29T11:17:52.658Z,27.60
2017-07-29T11:20:18.975Z,27.70
2017-07-29T11:22:46.092Z,27.90
2017-07-29T11:25:12.419Z,28.20
2017-07-29T11:27:38.789Z,28.10
2017-07-29T11:30:06.137Z,28.30
2017-07-29T11:32:32.416Z,28.20
2017-07-29T11:34:58.729Z,28.70
2017-07-29T11:37:25.020Z,29.30
2017-07-29T11:39:51.701Z,30.70
2017-07-29T11:42:18.006Z,30.70
2017-07-29T11:44:45.044Z,31.70
2017-07-29T11:47:11.336Z,33.50
2017-07-29T11:49:37.614Z,35.90
2017-07-29T11:52:03.919Z,38.00
2017-07-29T11:54:30.221Z,40.20
2017-07-29T11:56:56.498Z,40.70
2017-07-29T11:59:22.836Z,40.80
2017-07-29T12:01:49.108Z,40.60
2017-07-29T12:04:15.408Z,40.50
2017-07-29T12:06:41.702Z,39.90
2017-07-29T12:09:08.314Z,38.60
2017-07-29T12:11:34.606Z,39.20
2017-07-29T12:14:00.873Z,40.20
2017-07-29T12:16:27.165Z,40.80
2017-07-29T12:18:53.413Z,41.90
2017-07-29T12:21:20.615Z,42.60
2017-07-29T12:23:46.872Z,44.30
2017-07-29T12:26:13.170Z,46.10
2017-07-29T12:28:39.433Z,47.80
2017-07-29T12:31:05.743Z,49.30
2017-07-29T12:33:32.046Z,50.30
2017-07-29T12:35:58.333Z,51.80
2017-07-29T12:38:24.635Z,52.90
2017-07-29T12:40:50.916Z,53.60
2017-07-29T12:43:17.185Z,54.30
2017-07-29T12:45:43.482Z,53.10
2017-07-29T12:48:09.774Z,53.70
2017-07-29T12:50:36.040Z,54.40
2017-07-29T12:53:02.329Z,55.60
2017-07-29T12:55:29.441Z,56.30
2017-07-29T12:57:56.378Z,56.60
2017-07-29T13:00:22.648Z,56.60
2017-07-29T13:02:48.918Z,56.10
2017-07-29T13:05:15.206Z,55.20
2017-07-29T13:07:41.464Z,52.90
2017-07-29T13:10:07.770Z,51.60
2017-07-29T13:12:34.052Z,53.00
2017-07-29T13:15:00.718Z,53.40
2017-07-29T13:17:27.070Z,53.40
2017-07-29T13:19:53.668Z,54.50
2017-07-29T13:22:19.940Z,55.00
2017-07-29T13:24:46.199Z,54.30
2017-07-29T13:27:12.490Z,54.80
2017-07-29T13:29:38.750Z,55.90
2017-07-29T13:32:05.044Z,55.90
2017-07-29T13:34:31.326Z,53.40
2017-07-29T13:36:57.881Z,51.10
2017-07-29T13:39:24.133Z,49.00
2017-07-29T13:41:50.406Z,47.40
2017-07-29T13:44:16.702Z,47.10
2017-07-29T13:46:42.971Z,47.50
2017-07-29T13:49:09.257Z,48.80
2017-07-29T13:51:35.765Z,51.40
2017-07-29T13:54:02.125Z,51.40
2017-07-29T13:56:28.423Z,52.00
2017-07-29T13:58:55.096Z,54.90
2017-07-29T14:01:21.410Z,54.90
2017-07-29T14:03:47.740Z,56.30
2017-07-29T14:06:14.033Z,56.00
2017-07-29T14:08:40.354Z,56.60
2017-07-29T14:11:06.651Z,58.10
2017-07-29T14:13:32.959Z,58.90
2017-07-29T14:15:59.196Z,59.30
2017-07-29T14:18:25.489Z,60.20
2017-07-29T14:20:52.122Z,60.80
2017-07-29T14:23:18.780Z,60.50
2017-07-29T14:25:45.051Z,60.50
2017-07-29T14:28:11.347Z,60.30
2017-07-29T14:30:37.624Z,60.00
2017-07-29T14:33:03.911Z,60.30
2017-07-29T14:35:30.203Z,60.60
2017-07-29T14:37:56.475Z,60.40
2017-07-29T14:40:22.767Z,59.90
2017-07-29T14:42:49.413Z,59.10
2017-07-29T14:45:16.082Z,58.30
2017-07-29T14:47:42.369Z,58.30
2017-07-29T14:50:08.658Z,57.60
2017-07-29T14:52:34.939Z,56.60
2017-07-29T14:55:01.573Z,55.40
2017-07-29T14:57:28.241Z,53.00
2017-07-29T14:59:54.531Z,53.00
2017-07-29T15:02:20.814Z,52.40
2017-07-29T15:04:47.095Z,52.80
2017-07-29T15:07:13.723Z,52.10
2017-07-29T15:09:39.993Z,52.10
2017-07-29T15:12:06.240Z,52.70
2017-07-29T15:14:33.373Z,52.80
2017-07-29T15:16:59.651Z,52.50
2017-07-29T15:19:25.924Z,52.90
2017-07-29T15:21:52.209Z,50.80
2017-07-29T15:24:18.504Z,50.70
2017-07-29T15:26:44.780Z,51.60
2017-07-29T15:29:11.097Z,51.90
2017-07-29T15:31:37.350Z,51.70
2017-07-29T15:34:03.630Z,51.50
2017-07-29T15:36:29.898Z,51.30
2017-07-29T15:38:56.190Z,50.90
2017-07-29T15:41:22.472Z,51.30
2017-07-29T15:43:48.733Z,52.20
2017-07-29T15:46:15.022Z,51.80
2017-07-29T15:48:41.657Z,50.50
2017-07-29T15:51:08.321Z,51.10
2017-07-29T15:53:34.585Z,51.10
2017-07-29T15:56:00.863Z,51.40
2017-07-29T15:58:27.119Z,51.50
2017-07-29T16:00:54.312Z,51.70
2017-07-29T16:03:20.579Z,51.80
2017-07-29T16:05:46.836Z,52.30
2017-07-29T16:08:13.093Z,52.10
2017-07-29T16:10:39.380Z,51.30
2017-07-29T16:13:05.674Z,50.80
2017-07-29T16:15:31.935Z,50.90
2017-07-29T16:17:58.186Z,50.70
2017-07-29T16:20:24.496Z,50.50
2017-07-29T16:22:50.800Z,50.50
2017-07-29T16:25:17.114Z,49.50
2017-07-29T16:27:43.396Z,49.30
2017-07-29T16:30:09.678Z,49.50
2017-07-29T16:32:35.937Z,49.10
2017-07-29T16:35:02.220Z,48.80
2017-07-29T16:37:28.509Z,48.70
2017-07-29T16:39:54.785Z,48.50
2017-07-29T16:42:21.042Z,48.20
2017-07-29T16:44:47.317Z,48.00
2017-07-29T16:47:13.579Z,47.70
2017-07-29T16:49:39.877Z,47.20
2017-07-29T16:52:06.161Z,46.50
2017-07-29T16:54:32.429Z,45.00
2017-07-29T16:56:58.722Z,43.90
2017-07-29T16:59:24.974Z,42.90
2017-07-29T17:01:51.258Z,41.50
2017-07-29T17:04:17.542Z,40.10
2017-07-29T17:06:43.809Z,39.00
2017-07-29T17:09:10.086Z,37.90
2017-07-29T17:11:36.365Z,37.10
2017-07-29T17:14:02.625Z,36.30
2017-07-29T17:16:28.902Z,35.60
2017-07-29T17:18:55.154Z,34.90
2017-07-29T17:21:21.429Z,34.10
2017-07-29T17:23:47.706Z,33.60
2017-07-29T17:26:13.986Z,33.20
2017-07-29T17:28:40.268Z,32.90
2017-07-29T17:31:06.568Z,32.60
2017-07-29T17:33:32.823Z,32.30
2017-07-29T17:35:59.095Z,32.10
2017-07-29T17:38:25.357Z,31.90
2017-07-29T17:40:51.642Z,31.60
2017-07-29T17:43:18.268Z,31.00
2017-07-29T17:45:44.929Z,30.90
2017-07-29T17:48:11.198Z,30.90
2017-07-29T17:50:38.316Z,30.80
2017-07-29T17:53:04.581Z,30.60
2017-07-29T17:55:30.881Z,30.40
2017-07-29T17:57:57.140Z,30.30
2017-07-29T18:00:23.429Z,30.10
2017-07-29T18:02:49.726Z,29.90
2017-07-29T18:05:16.361Z,29.70
2017-07-29T18:07:44.665Z,29.80
2017-07-29T18:10:10.952Z,29.80
2017-07-29T18:12:37.248Z,29.70
2017-07-29T18:15:03.548Z,29.70
2017-07-29T18:17:29.822Z,29.60
2017-07-29T18:19:56.704Z,29.40
2017-07-29T18:22:22.999Z,29.20
2017-07-29T18:24:49.254Z,29.00
2017-07-29T18:27:15.551Z,28.70
2017-07-29T18:29:41.816Z,28.60
2017-07-29T18:32:08.089Z,28.40
2017-07-29T18:34:34.397Z,28.30
2017-07-29T18:37:00.699Z,28.10
2017-07-29T18:39:27.003Z,27.90
2017-07-29T18:41:53.284Z,27.80
2017-07-29T18:44:20.197Z,27.70
2017-07-29T18:46:46.539Z,27.60
2017-07-29T18:49:13.586Z,27.40
2017-07-29T18:51:40.269Z,27.40
2017-07-29T18:54:06.563Z,27.40
2017-07-29T18:56:32.851Z,27.30
2017-07-29T18:58:59.095Z,27.20
2017-07-29T19:01:25.404Z,27.00
2017-07-29T19:03:51.669Z,26.90
2017-07-29T19:06:17.939Z,26.80
2017-07-29T19:08:45.199Z,26.70
2017-07-29T19:11:11.492Z,26.70
2017-07-29T19:13:38.167Z,26.40
2017-07-29T19:16:04.454Z,26.50
2017-07-29T19:18:31.702Z,26.30
2017-07-29T19:20:57.998Z,26.10
2017-07-29T19:23:24.276Z,25.90
2017-07-29T19:25:50.569Z,25.80
2017-07-29T19:28:16.881Z,25.60
2017-07-29T19:30:43.182Z,25.50
2017-07-29T19:33:09.493Z,25.30
2017-07-29T19:35:35.774Z,25.20
2017-07-29T19:38:02.095Z,25.10
2017-07-29T19:40:28.346Z,25.10
2017-07-29T19:42:54.630Z,24.90
2017-07-29T19:45:20.926Z,24.70
2017-07-29T19:47:47.610Z,24.50
2017-07-29T19:50:13.880Z,24.60
2017-07-29T19:52:40.195Z,24.40
2017-07-29T19:55:07.211Z,24.40
2017-07-29T19:57:34.584Z,24.40
2017-07-29T20:00:00.855Z,24.20
2017-07-29T20:02:27.139Z,24.10
2017-07-29T20:04:54.862Z,24.00
2017-07-29T20:07:21.951Z,24.00
2017-07-29T20:09:48.318Z,23.90
2017-07-29T20:12:14.616Z,23.90
2017-07-29T20:14:40.912Z,23.80
2017-07-29T20:17:07.354Z,23.80
2017-07-29T20:19:33.662Z,23.70
2017-07-29T20:21:59.948Z,23.60
2017-07-29T20:24:26.242Z,23.50
2017-07-29T20:26:52.496Z,23.40
2017-07-29T20:29:18.813Z,23.20
2017-07-29T20:31:45.068Z,23.00
2017-07-29T20:34:11.357Z,22.80
2017-07-29T20:36:37.645Z,22.70
2017-07-29T20:39:03.944Z,22.50
2017-07-29T20:41:30.197Z,22.50
2017-07-29T20:43:56.504Z,22.50
2017-07-29T20:46:22.792Z,22.50
2017-07-29T20:48:49.107Z,22.50
2017-07-29T20:51:15.815Z,22.50
2017-07-29T20:53:42.114Z,22.50
2017-07-29T20:56:08.538Z,22.40
2017-07-29T20:58:34.902Z,22.40
2017-07-29T21:01:01.231Z,22.30
2017-07-29T21:03:27.558Z,22.30
2017-07-29T21:05:53.821Z,22.30
2017-07-29T21:08:20.785Z,22.30
2017-07-29T21:10:47.175Z,22.20
2017-07-29T21:13:13.449Z,22.20
2017-07-29T21:15:40.562Z,22.10
2017-07-29T21:18:06.846Z,21.90
2017-07-29T21:20:33.158Z,21.80
2017-07-29T21:22:59.558Z,21.80
2017-07-29T21:25:25.893Z,21.70
2017-07-29T21:27:52.194Z,21.80
2017-07-29T21:30:18.498Z,21.80
2017-07-29T21:32:44.797Z,21.80
2017-07-29T21:35:11.080Z,21.60
2017-07-29T21:37:37.329Z,21.40
2017-07-29T21:40:03.610Z,21.20
2017-07-29T21:42:29.919Z,21.20
2017-07-29T21:44:56.222Z,21.40
2017-07-29T21:47:22.496Z,21.40
2017-07-29T21:49:49.660Z,21.30
2017-07-29T21:52:15.947Z,21.30
2017-07-29T21:54:42.585Z,21.30
2017-07-29T21:57:09.245Z,21.30
2017-07-29T21:59:35.541Z,21.30
2017-07-29T22:02:01.830Z,21.30
2017-07-29T22:04:28.960Z,21.30
2017-07-29T22:06:56.179Z,21.20
2017-07-29T22:09:22.850Z,20.90
2017-07-29T22:11:49.129Z,20.90
2017-07-29T22:14:15.397Z,20.90
2017-07-29T22:16:41.706Z,20.80
2017-07-29T22:19:08.331Z,20.70
2017-07-29T22:21:34.632Z,20.70
2017-07-29T22:24:00.960Z,20.70
2017-07-29T22:26:27.262Z,20.70
2017-07-29T22:28:53.557Z,20.40
2017-07-29T22:31:19.841Z,20.30
2017-07-29T22:33:46.131Z,20.30
2017-07-29T22:36:12.795Z,20.30
2017-07-29T22:38:39.075Z,20.30
2017-07-29T22:41:05.365Z,20.20
2017-07-29T22:43:31.642Z,20.20
2017-07-29T22:45:58.337Z,20.30
2017-07-29T22:48:24.600Z,20.30
2017-07-29T22:50:50.916Z,20.30
2017-07-29T22:53:17.196Z,20.20
2017-07-29T22:55:43.454Z,20.20
2017-07-29T22:58:09.719Z,20.00
2017-07-29T23:00:36.012Z,19.90
2017-07-29T23:03:02.245Z,19.80
2017-07-29T23:05:28.522Z,19.90
2017-07-29T23:07:55.146Z,20.00
2017-07-29T23:10:21.404Z,20.10
2017-07-29T23:12:47.665Z,20.10
2017-07-29T23:15:13.954Z,20.10
2017-07-29T23:17:40.216Z,20.10
2017-07-29T23:20:06.477Z,20.00
2017-07-29T23:22:32.748Z,20.10
2017-07-29T23:24:59.025Z,20.10
2017-07-29T23:27:25.387Z,20.10
2017-07-29T23:29:52.055Z,20.00
2017-07-29T23:32:18.361Z,20.00
2017-07-29T23:34:44.612Z,20.00
2017-07-29T23:37:10.906Z,19.90
2017-07-29T23:39:37.166Z,19.80
2017-07-29T23:42:03.461Z,19.70
2017-07-29T23:44:29.722Z,19.70
2017-07-29T23:46:56.977Z,19.70
2017-07-29T23:49:23.251Z,19.70
2017-07-29T23:51:49.540Z,19.70
2017-07-29T23:54:15.798Z,19.70
2017-07-29T23:56:42.065Z,19.70
2017-07-29T23:59:08.329Z,19.70
